createdAt,value
2022-08-22T00:02:59.810Z,26.21
2022-08-22T00:03:24.256Z,21.61
2022-08-22T00:04:24.229Z,21.60
2022-08-22T00:05:24.222Z,21.60
2022-08-22T00:06:24.225Z,21.57
2022-08-22T00:07:24.199Z,21.58
2022-08-22T00:08:24.339Z,21.57
2022-08-22T00:09:24.243Z,21.57
2022-08-22T00:10:25.575Z,21.54
2022-08-22T00:11:24.189Z,21.55
2022-08-22T00:12:24.182Z,21.52
2022-08-22T00:13:24.164Z,21.52
2022-08-22T00:14:24.150Z,21.52
2022-08-22T00:15:42.277Z,21.51
2022-08-22T00:16:24.124Z,21.50
2022-08-22T00:17:24.106Z,21.50
2022-08-22T00:18:24.082Z,21.50
2022-08-22T00:19:24.078Z,21.45
2022-08-22T00:20:28.250Z,21.43
2022-08-22T00:21:24.059Z,21.45
2022-08-22T00:22:24.044Z,21.45
2022-08-22T00:23:24.036Z,21.46
2022-08-22T00:24:24.017Z,21.45
2022-08-22T00:25:25.962Z,21.45
2022-08-22T00:26:24.012Z,21.40
2022-08-22T00:27:23.992Z,21.39
2022-08-22T00:28:23.976Z,21.40
2022-08-22T00:29:23.969Z,21.37
2022-08-22T00:30:24.092Z,21.39
2022-08-22T00:31:23.946Z,21.37
2022-08-22T00:32:24.045Z,21.39
2022-08-22T00:33:23.950Z,21.39
2022-08-22T00:34:23.967Z,21.39
2022-08-22T00:35:23.898Z,21.40
2022-08-22T00:36:23.916Z,21.40
2022-08-22T00:37:24.304Z,21.42
2022-08-22T00:38:23.888Z,21.39
2022-08-22T00:39:23.899Z,21.39
2022-08-22T00:40:23.875Z,21.42
2022-08-22T00:41:23.840Z,21.42
2022-08-22T00:42:31.386Z,21.40
2022-08-22T00:43:23.840Z,21.42
2022-08-22T00:44:23.855Z,21.39
2022-08-22T00:45:23.925Z,21.39
2022-08-22T00:46:23.847Z,21.37
2022-08-22T00:47:23.773Z,21.36
2022-08-22T00:48:23.789Z,21.35
2022-08-22T00:49:27.139Z,21.33
2022-08-22T00:50:23.736Z,21.35
2022-08-22T00:51:23.735Z,21.33
2022-08-22T00:52:23.715Z,21.36
2022-08-22T00:53:23.703Z,21.37
2022-08-22T00:54:23.726Z,21.37
2022-08-22T00:55:23.691Z,21.36
2022-08-22T00:56:23.676Z,21.36
2022-08-22T00:57:23.658Z,21.35
2022-08-22T00:58:23.656Z,21.36
2022-08-22T00:59:24.242Z,21.36
2022-08-22T01:00:23.644Z,21.33
2022-08-22T01:01:23.666Z,21.33
2022-08-22T01:02:23.606Z,21.32
2022-08-22T01:03:23.606Z,21.29
2022-08-22T01:04:23.583Z,21.27
2022-08-22T01:05:23.616Z,21.29
2022-08-22T01:06:23.565Z,21.27
2022-08-22T01:07:23.561Z,21.25
2022-08-22T01:08:29.200Z,21.21
2022-08-22T01:09:23.537Z,21.20
2022-08-22T05:01:11.998Z,19.99
2022-08-22T05:02:12.888Z,19.96
2022-08-22T05:03:12.870Z,19.95
2022-08-22T05:04:12.858Z,19.99
2022-08-22T05:05:13.715Z,20.00
2022-08-22T05:06:12.868Z,19.99
2022-08-22T05:07:12.842Z,19.99
2022-08-22T05:08:12.818Z,19.99
2022-08-22T05:09:15.999Z,20.03
2022-08-22T05:10:12.817Z,20.00
2022-08-22T05:11:12.791Z,20.03
2022-08-22T05:12:12.803Z,20.03
2022-08-22T05:13:12.769Z,20.02
2022-08-22T05:14:12.761Z,20.03
2022-08-22T05:15:12.740Z,20.06
2022-08-22T05:16:12.735Z,20.06
2022-08-22T05:17:12.741Z,20.03
2022-08-22T05:18:22.311Z,20.04
2022-08-22T05:19:16.457Z,20.02
2022-08-22T05:20:12.696Z,20.03
2022-08-22T05:21:14.636Z,20.04
2022-08-22T05:22:12.685Z,20.06
2022-08-22T05:23:17.255Z,20.06
2022-08-22T05:24:12.671Z,20.06
2022-08-22T05:25:12.651Z,20.07
2022-08-22T05:26:12.635Z,20.10
2022-08-22T05:27:12.673Z,20.09
2022-08-22T05:28:12.614Z,20.09
2022-08-22T05:29:12.605Z,20.09
2022-08-22T05:30:12.589Z,20.11
2022-08-22T05:31:12.650Z,20.13
2022-08-22T05:32:12.580Z,20.13
2022-08-22T05:33:12.591Z,20.10
2022-08-22T05:34:12.548Z,20.11
2022-08-22T05:35:12.529Z,20.13
2022-08-22T05:36:12.547Z,20.11
2022-08-22T05:37:12.512Z,20.13
2022-08-22T05:38:12.520Z,20.11
2022-08-22T05:39:12.531Z,20.10
2022-08-22T05:40:12.582Z,20.09
2022-08-22T05:41:12.472Z,20.07
2022-08-22T05:42:12.477Z,20.11
2022-08-22T05:43:12.472Z,20.09
2022-08-22T05:44:12.434Z,20.09
2022-08-22T05:45:12.488Z,20.11
2022-08-22T05:46:12.436Z,20.10
2022-08-22T05:47:12.418Z,20.11
2022-08-22T05:48:12.400Z,20.09
2022-08-22T05:49:12.402Z,20.11
2022-08-22T05:50:12.381Z,20.14
2022-08-22T05:51:12.365Z,20.11
2022-08-22T05:52:12.351Z,20.13
2022-08-22T05:53:12.341Z,20.11
2022-08-22T05:54:12.337Z,20.10
2022-08-22T05:55:12.364Z,20.11
2022-08-22T05:56:12.321Z,20.11
2022-08-22T05:57:12.305Z,20.11
2022-08-22T05:58:12.311Z,20.13
2022-08-22T05:59:12.278Z,20.11
2022-08-22T06:00:12.273Z,20.11
2022-08-22T06:01:12.252Z,20.11
2022-08-22T06:02:12.340Z,20.13
2022-08-22T06:03:12.235Z,20.13
2022-08-22T06:04:12.678Z,20.16
2022-08-22T06:05:12.356Z,20.16
2022-08-22T06:06:12.205Z,20.19
2022-08-22T06:07:12.188Z,20.19
2022-08-22T06:08:12.200Z,20.21
2022-08-22T06:09:12.177Z,20.21
2022-08-22T06:10:12.189Z,20.21
2022-08-22T06:11:12.154Z,20.21
2022-08-22T06:12:18.248Z,20.21
2022-08-22T06:13:12.138Z,20.22
2022-08-22T06:14:13.049Z,20.22
2022-08-22T06:15:12.610Z,20.25
2022-08-22T06:16:12.116Z,20.26
2022-08-22T06:17:12.116Z,20.28
2022-08-22T06:18:12.080Z,20.28
2022-08-22T06:19:19.493Z,20.31
2022-08-22T06:20:12.069Z,20.31
2022-08-22T06:21:12.039Z,20.32
2022-08-22T06:22:12.052Z,20.34
2022-08-22T06:23:12.032Z,20.36
2022-08-22T06:24:12.013Z,20.34
2022-08-22T06:25:12.009Z,20.37
2022-08-22T06:26:20.456Z,20.36
2022-08-22T06:27:12.016Z,20.39
2022-08-22T06:28:11.973Z,20.40
2022-08-22T06:29:11.960Z,20.43
2022-08-22T06:30:11.962Z,20.41
2022-08-22T06:31:11.956Z,20.43
2022-08-22T06:32:11.932Z,20.50
2022-08-22T06:33:12.581Z,20.51
2022-08-22T06:34:11.906Z,20.52
2022-08-22T06:35:11.902Z,20.56
2022-08-22T06:36:11.892Z,20.58
2022-08-22T06:37:11.875Z,20.60
2022-08-22T06:38:11.873Z,20.63
2022-08-22T06:39:11.884Z,20.65
2022-08-22T06:40:11.930Z,20.66
2022-08-22T06:41:11.840Z,20.69
2022-08-22T06:42:16.350Z,20.67
2022-08-22T06:43:11.811Z,20.70
2022-08-22T06:44:11.804Z,20.74
2022-08-22T06:45:11.834Z,20.74
2022-08-22T06:46:11.798Z,20.75
2022-08-22T06:47:11.775Z,20.80
2022-08-22T06:48:11.760Z,20.81
2022-08-22T06:49:11.799Z,20.85
2022-08-22T06:50:13.939Z,20.87
2022-08-22T06:51:11.781Z,20.88
2022-08-22T06:52:11.721Z,20.93
2022-08-22T06:53:11.708Z,20.95
2022-08-22T06:54:11.712Z,20.97
2022-08-22T06:55:11.715Z,21.02
2022-08-22T06:56:11.666Z,21.03
2022-08-22T06:57:11.664Z,21.05
2022-08-22T06:58:11.677Z,21.06
2022-08-22T06:59:11.644Z,21.07
2022-08-22T07:00:11.639Z,21.07
2022-08-22T07:01:12.707Z,21.09
2022-08-22T07:02:11.659Z,21.12
2022-08-22T07:03:11.597Z,21.12
2022-08-22T07:04:11.598Z,21.12
2022-08-22T07:05:11.599Z,21.15
2022-08-22T07:06:11.581Z,21.15
2022-08-22T07:07:11.562Z,21.18
2022-08-22T07:08:11.563Z,21.20
2022-08-22T07:09:11.537Z,21.21
2022-08-22T07:10:11.531Z,21.20
2022-08-22T07:11:11.540Z,21.22
2022-08-22T07:12:11.509Z,21.22
2022-08-22T07:13:11.506Z,21.25
2022-08-22T07:14:11.528Z,21.27
2022-08-22T07:15:11.481Z,21.27
2022-08-22T07:16:11.484Z,21.29
2022-08-22T07:17:11.454Z,21.30
2022-08-22T07:18:11.450Z,21.30
2022-08-22T07:19:11.493Z,21.33
2022-08-22T07:20:11.444Z,21.35
2022-08-22T07:21:11.414Z,21.35
2022-08-22T07:22:11.393Z,21.33
2022-08-22T07:23:11.393Z,21.36
2022-08-22T07:24:11.393Z,21.35
2022-08-22T07:25:11.376Z,21.37
2022-08-22T07:26:11.357Z,21.37
2022-08-22T07:27:11.342Z,21.37
2022-08-22T07:28:16.189Z,21.39
2022-08-22T07:29:11.659Z,21.42
2022-08-22T07:30:11.303Z,21.40
2022-08-22T07:31:11.313Z,21.43
2022-08-22T07:32:11.298Z,21.43
2022-08-22T07:33:21.037Z,21.45
2022-08-22T07:34:11.321Z,21.46
2022-08-22T07:35:11.275Z,21.48
2022-08-22T07:36:11.257Z,21.48
2022-08-22T07:37:11.237Z,21.48
2022-08-22T07:38:11.236Z,21.50
2022-08-22T07:39:11.342Z,21.50
2022-08-22T07:40:11.254Z,21.50
2022-08-22T07:41:11.246Z,21.51
2022-08-22T07:42:11.187Z,21.52
2022-08-22T07:43:11.184Z,21.54
2022-08-22T07:44:11.171Z,21.57
2022-08-22T07:45:11.170Z,21.58
2022-08-22T07:46:11.142Z,21.58
2022-08-22T07:47:11.128Z,21.60
2022-08-22T07:48:11.151Z,21.61
2022-08-22T07:49:11.106Z,21.62
2022-08-22T07:50:11.100Z,21.64
2022-08-22T07:51:11.112Z,21.66
2022-08-22T07:52:11.073Z,21.69
2022-08-22T07:53:11.072Z,21.69
2022-08-22T07:54:11.062Z,21.69
2022-08-22T07:55:11.046Z,21.70
2022-08-22T07:56:11.036Z,21.70
2022-08-22T07:57:11.044Z,21.72
2022-08-22T07:58:11.027Z,21.72
2022-08-22T07:59:13.183Z,21.70
2022-08-22T08:00:10.998Z,21.72
2022-08-22T08:01:11.062Z,21.75
2022-08-22T08:02:10.989Z,21.77
2022-08-22T08:03:10.975Z,21.79
2022-08-22T08:04:10.954Z,21.79
2022-08-22T08:05:10.947Z,21.82
2022-08-22T08:06:10.930Z,21.80
2022-08-22T08:07:10.911Z,21.83
2022-08-22T08:08:15.504Z,21.88
2022-08-22T08:09:10.928Z,21.88
2022-08-22T08:10:13.108Z,21.88
2022-08-22T08:11:10.883Z,21.91
2022-08-22T08:12:10.868Z,21.91
2022-08-22T08:13:10.854Z,21.91
2022-08-22T08:14:13.692Z,21.95
2022-08-22T08:15:10.829Z,21.98
2022-08-22T08:16:10.825Z,22.04
2022-08-22T08:17:10.817Z,22.06
2022-08-22T08:18:10.817Z,22.08
2022-08-22T08:19:10.804Z,22.11
2022-08-22T08:20:10.777Z,22.17
2022-08-22T08:21:10.794Z,22.20
2022-08-22T08:22:10.763Z,22.22
2022-08-22T08:23:10.753Z,22.25
2022-08-22T08:24:10.754Z,22.29
2022-08-22T08:25:10.727Z,22.33
2022-08-22T08:26:10.731Z,22.36
2022-08-22T08:27:10.704Z,22.39
2022-08-22T08:28:10.699Z,22.43
2022-08-22T08:29:10.716Z,22.47
2022-08-22T08:30:15.088Z,22.51
2022-08-22T08:31:10.669Z,22.54
2022-08-22T08:32:10.656Z,22.57
2022-08-22T08:33:24.713Z,22.63
2022-08-22T08:34:10.667Z,22.68
2022-08-22T08:35:10.621Z,22.72
2022-08-22T08:36:10.631Z,22.75
2022-08-22T08:37:12.774Z,22.80
2022-08-22T08:38:10.590Z,22.81
2022-08-22T08:39:10.595Z,22.85
2022-08-22T08:40:10.592Z,22.85
2022-08-22T08:41:10.569Z,22.87
2022-08-22T08:42:10.549Z,22.88
2022-08-22T08:43:10.901Z,22.91
2022-08-22T08:44:10.557Z,22.93
2022-08-22T08:45:10.510Z,22.94
2022-08-22T08:46:10.500Z,22.96
2022-08-22T08:47:10.524Z,22.99
2022-08-22T08:48:10.502Z,23.02
2022-08-22T08:49:10.477Z,23.06
2022-08-22T08:50:10.456Z,23.08
2022-08-22T08:51:10.447Z,23.10
2022-08-22T08:52:10.434Z,23.10
2022-08-22T08:53:10.452Z,23.13
2022-08-22T08:54:10.434Z,23.15
2022-08-22T08:55:19.911Z,23.20
2022-08-22T09:40:29.754Z,23.20
2022-08-22T09:40:34.657Z,24.61
2022-08-22T09:41:34.648Z,24.63
2022-08-22T09:42:34.747Z,24.65
2022-08-22T09:43:34.634Z,24.66
2022-08-22T09:44:34.616Z,24.68
2022-08-22T09:45:34.628Z,24.70
2022-08-22T09:46:36.715Z,24.73
2022-08-22T09:47:34.591Z,24.76
2022-08-22T09:48:34.579Z,24.78
2022-08-22T09:49:34.567Z,24.80
2022-08-22T09:50:34.597Z,24.84
2022-08-22T09:51:34.559Z,24.88
2022-08-22T09:52:36.496Z,24.92
2022-08-22T09:53:34.527Z,24.92
2022-08-22T09:54:34.527Z,24.96
2022-08-22T09:55:35.181Z,25.03
2022-08-22T09:56:34.519Z,25.06
2022-08-22T09:57:34.516Z,25.08
2022-08-22T09:58:38.827Z,25.13
2022-08-22T09:59:34.460Z,25.16
2022-08-22T10:00:34.452Z,25.18
2022-08-22T10:01:34.472Z,25.22
2022-08-22T10:02:34.455Z,25.23
2022-08-22T10:03:34.411Z,25.25
2022-08-22T10:04:34.406Z,25.28
2022-08-22T10:05:40.835Z,25.31
2022-08-22T10:06:34.395Z,25.33
2022-08-22T10:07:34.450Z,25.36
2022-08-22T10:08:34.401Z,25.43
2022-08-22T10:09:34.365Z,25.46
2022-08-22T10:10:34.404Z,25.50
2022-08-22T10:11:34.327Z,25.53
2022-08-22T10:12:36.030Z,25.55
2022-08-22T10:13:34.344Z,25.60
2022-08-22T10:14:34.301Z,25.62
2022-08-22T10:15:34.306Z,25.63
2022-08-22T10:16:34.306Z,25.65
2022-08-22T10:17:34.343Z,25.66
2022-08-22T10:18:34.267Z,25.69
2022-08-22T10:19:34.275Z,25.70
2022-08-22T10:20:34.239Z,25.72
2022-08-22T10:21:34.259Z,25.73
2022-08-22T10:22:34.209Z,25.77
2022-08-22T10:23:34.217Z,25.78
2022-08-22T10:24:34.217Z,25.80
2022-08-22T10:25:34.246Z,25.83
2022-08-22T10:26:38.408Z,25.85
2022-08-22T10:27:34.160Z,25.87
2022-08-22T10:28:34.182Z,25.91
2022-08-22T10:29:34.144Z,25.95
2022-08-22T10:30:34.155Z,25.98
2022-08-22T10:31:34.125Z,26.02
2022-08-22T10:32:34.119Z,26.05
2022-08-22T10:33:34.148Z,26.09
2022-08-22T10:34:34.081Z,26.13
2022-08-22T10:35:34.274Z,26.18
2022-08-22T10:36:34.075Z,26.21
2022-08-22T10:37:34.066Z,26.23
2022-08-22T10:38:36.042Z,26.25
2022-08-22T10:39:34.040Z,26.26
2022-08-22T10:40:34.061Z,26.31
2022-08-22T10:41:34.076Z,26.33
2022-08-22T10:42:35.236Z,26.36
2022-08-22T10:43:34.103Z,26.41
2022-08-22T10:44:33.982Z,26.43
2022-08-22T10:45:36.773Z,26.45
2022-08-22T10:46:34.005Z,26.48
2022-08-22T10:47:33.969Z,26.53
2022-08-22T10:48:33.962Z,26.58
2022-08-22T10:49:33.931Z,26.60
2022-08-22T10:50:33.922Z,26.66
2022-08-22T10:51:33.902Z,26.73
2022-08-22T10:52:33.922Z,26.75
2022-08-22T10:53:34.990Z,26.78
2022-08-22T10:54:34.158Z,26.83
2022-08-22T10:55:33.866Z,26.88
2022-08-22T10:56:33.853Z,26.89
2022-08-22T10:57:33.848Z,26.93
2022-08-22T10:58:33.858Z,26.96
2022-08-22T10:59:33.895Z,27.00
2022-08-22T11:00:33.909Z,27.07
2022-08-22T11:01:37.980Z,27.07
2022-08-22T11:02:33.832Z,27.11
2022-08-22T11:03:33.827Z,27.12
2022-08-22T11:04:33.783Z,27.17
2022-08-22T11:05:33.760Z,27.21
2022-08-22T11:06:33.749Z,27.25
2022-08-22T11:07:33.746Z,27.25
2022-08-22T11:08:34.724Z,27.29
2022-08-22T11:09:36.927Z,27.33
2022-08-22T11:10:34.863Z,27.37
2022-08-22T11:11:33.711Z,27.40
2022-08-22T11:12:34.891Z,27.42
2022-08-22T11:13:33.741Z,27.44
2022-08-22T11:14:33.771Z,27.44
2022-08-22T11:15:34.881Z,27.45
2022-08-22T11:16:36.546Z,27.47
2022-08-22T11:17:40.725Z,27.48
2022-08-22T11:18:35.699Z,27.49
2022-08-22T11:19:33.918Z,27.49
2022-08-22T11:20:33.651Z,27.52
2022-08-22T11:21:33.594Z,27.58
2022-08-22T11:22:33.590Z,27.63
2022-08-22T11:23:33.663Z,27.63
2022-08-22T11:24:35.709Z,27.68
2022-08-22T11:25:38.465Z,27.74
2022-08-22T11:26:41.382Z,27.82
2022-08-22T11:27:38.232Z,27.87
2022-08-22T11:28:33.542Z,27.96
2022-08-22T11:29:33.547Z,28.04
2022-08-22T11:30:36.543Z,28.11
2022-08-22T11:31:36.659Z,28.17
2022-08-22T11:32:33.509Z,28.25
2022-08-22T11:33:46.492Z,28.30
2022-08-22T11:34:33.466Z,28.35
2022-08-22T11:35:33.475Z,28.41
2022-08-22T11:36:33.463Z,28.45
2022-08-22T11:37:43.218Z,28.47
2022-08-22T11:38:33.442Z,28.48
2022-08-22T11:39:33.405Z,28.45
2022-08-22T11:40:34.394Z,28.45
2022-08-22T11:41:33.412Z,28.48
2022-08-22T11:42:33.383Z,28.47
2022-08-22T11:43:33.360Z,28.45
2022-08-22T11:44:34.804Z,28.44
2022-08-22T11:45:33.350Z,28.42
2022-08-22T11:46:33.382Z,28.48
2022-08-22T11:47:33.319Z,28.51
2022-08-22T11:48:33.320Z,28.54
2022-08-22T11:49:33.304Z,28.57
2022-08-22T11:50:33.290Z,28.56
2022-08-22T11:51:34.326Z,28.56
2022-08-22T11:52:33.300Z,28.57
2022-08-22T11:53:34.465Z,28.59
2022-08-22T11:54:33.252Z,28.60
2022-08-22T11:55:34.714Z,28.62
2022-08-22T11:56:33.239Z,28.67
2022-08-22T11:57:33.240Z,28.70
2022-08-22T11:58:33.229Z,28.78
2022-08-22T11:59:33.219Z,28.85
2022-08-22T12:00:33.221Z,28.93
2022-08-22T12:01:34.266Z,29.04
2022-08-22T12:02:33.232Z,29.08
2022-08-22T12:03:33.200Z,29.16
2022-08-22T12:04:33.151Z,29.23
2022-08-22T12:05:33.180Z,29.32
2022-08-22T12:06:34.588Z,29.41
2022-08-22T12:07:33.122Z,29.45
2022-08-22T12:08:33.130Z,29.49
2022-08-22T12:09:33.796Z,29.56
2022-08-22T12:10:33.097Z,29.57
2022-08-22T12:11:33.077Z,29.63
2022-08-22T12:12:33.082Z,29.68
2022-08-22T12:13:35.191Z,29.73
2022-08-22T12:14:33.049Z,29.76
2022-08-22T12:15:33.488Z,29.81
2022-08-22T12:16:33.032Z,29.84
2022-08-22T12:17:55.042Z,29.88
2022-08-22T12:18:33.041Z,29.93
2022-08-22T12:19:33.150Z,30.02
2022-08-22T12:20:33.021Z,30.06
2022-08-22T12:21:32.974Z,30.13
2022-08-22T12:22:32.974Z,30.15
2022-08-22T12:23:48.632Z,30.18
2022-08-22T12:24:32.966Z,30.25
2022-08-22T12:25:32.926Z,30.31
2022-08-22T12:26:32.950Z,30.39
2022-08-22T12:27:32.964Z,30.51
2022-08-22T12:28:32.911Z,30.54
2022-08-22T12:29:39.683Z,30.55
2022-08-22T12:30:32.892Z,30.61
2022-08-22T12:31:32.916Z,30.65
2022-08-22T12:32:32.876Z,30.75
2022-08-22T12:33:33.045Z,30.80
2022-08-22T12:34:32.835Z,30.85
2022-08-22T12:35:32.823Z,30.92
2022-08-22T12:36:32.853Z,30.97
2022-08-22T12:37:32.850Z,31.03
2022-08-22T12:38:37.727Z,31.02
2022-08-22T12:39:32.797Z,31.03
2022-08-22T12:40:32.847Z,31.06
2022-08-22T12:41:35.377Z,31.09
2022-08-22T12:42:32.783Z,31.18
2022-08-22T12:43:32.834Z,31.27
2022-08-22T12:44:32.740Z,31.28
2022-08-22T12:45:32.726Z,31.37
2022-08-22T12:46:32.820Z,31.39
2022-08-22T12:47:32.713Z,31.46
2022-08-22T12:48:32.718Z,31.54
2022-08-22T12:49:32.677Z,31.58
2022-08-22T12:50:32.678Z,31.62
2022-08-22T12:51:32.661Z,31.66
2022-08-22T12:52:33.150Z,31.73
2022-08-22T12:53:32.643Z,31.77
2022-08-22T12:54:32.635Z,31.80
2022-08-22T12:55:32.620Z,31.81
2022-08-22T12:56:32.619Z,31.87
2022-08-22T12:57:32.604Z,31.93
2022-08-22T12:58:34.008Z,31.99
2022-08-22T12:59:32.576Z,32.00
2022-08-22T13:00:32.641Z,32.04
2022-08-22T13:01:34.034Z,32.09
2022-08-22T13:02:32.555Z,32.14
2022-08-22T13:03:32.543Z,32.18
2022-08-22T13:04:34.116Z,32.18
2022-08-22T13:05:37.906Z,32.22
2022-08-22T13:06:32.518Z,32.30
2022-08-22T13:07:32.500Z,32.37
2022-08-22T13:08:32.516Z,32.40
2022-08-22T13:09:32.477Z,32.34
2022-08-22T13:10:32.504Z,32.34
2022-08-22T13:11:32.456Z,32.38
2022-08-22T13:12:32.455Z,32.46
2022-08-22T13:13:37.332Z,32.52
2022-08-22T13:14:32.432Z,32.59
2022-08-22T13:15:32.453Z,32.64
2022-08-22T13:16:32.438Z,32.68
2022-08-22T13:17:32.405Z,32.74
2022-08-22T13:18:32.587Z,32.82
2022-08-22T13:19:32.377Z,32.83
2022-08-22T13:20:32.379Z,32.86
2022-08-22T13:21:34.883Z,32.87
2022-08-22T13:22:32.358Z,32.96
2022-08-22T13:23:32.369Z,33.04
2022-08-22T13:24:38.649Z,33.11
2022-08-22T13:25:32.325Z,33.20
2022-08-22T13:26:35.294Z,33.22
2022-08-22T13:27:32.304Z,33.30
2022-08-22T13:28:32.292Z,33.39
2022-08-22T13:29:39.109Z,33.40
2022-08-22T13:30:32.300Z,33.45
2022-08-22T13:31:32.292Z,33.47
2022-08-22T13:32:32.249Z,33.45
2022-08-22T13:33:32.258Z,33.46
2022-08-22T13:34:34.843Z,33.52
2022-08-22T13:35:32.537Z,33.55
2022-08-22T13:36:32.246Z,33.58
2022-08-22T13:37:32.197Z,33.58
2022-08-22T13:38:32.237Z,33.58
2022-08-22T13:39:32.177Z,33.57
2022-08-22T13:40:32.173Z,33.52
2022-08-22T13:41:32.152Z,33.59
2022-08-22T13:42:32.322Z,33.65
2022-08-22T13:43:32.147Z,33.68
2022-08-22T13:44:32.133Z,33.69
2022-08-22T13:45:32.121Z,33.68
2022-08-22T13:46:32.111Z,33.73
2022-08-22T13:47:32.095Z,33.77
2022-08-22T13:48:32.102Z,33.80
2022-08-22T13:49:32.089Z,33.84
2022-08-22T13:50:37.598Z,33.90
2022-08-22T13:51:32.061Z,33.95
2022-08-22T13:52:32.051Z,33.96
2022-08-22T13:53:32.032Z,33.95
2022-08-22T13:54:35.279Z,33.96
2022-08-22T13:55:32.030Z,34.01
2022-08-22T13:56:32.020Z,34.03
2022-08-22T13:57:32.000Z,34.06
2022-08-22T13:58:31.994Z,34.10
2022-08-22T13:59:49.671Z,34.14
2022-08-22T14:00:31.970Z,34.11
2022-08-22T14:01:32.010Z,33.99
2022-08-22T14:02:34.170Z,33.84
2022-08-22T14:03:31.959Z,33.80
2022-08-22T14:04:35.619Z,33.68
2022-08-22T14:05:31.912Z,33.65
2022-08-22T14:06:35.287Z,33.65
2022-08-22T14:07:31.929Z,33.68
2022-08-22T14:08:31.882Z,33.80
2022-08-22T14:09:32.677Z,33.89
2022-08-22T14:10:31.861Z,33.96
2022-08-22T14:11:31.865Z,34.08
2022-08-22T14:12:33.640Z,34.17
2022-08-22T14:13:31.847Z,34.29
2022-08-22T14:14:31.828Z,34.43
2022-08-22T14:15:33.928Z,34.51
2022-08-22T14:16:31.861Z,34.54
2022-08-22T14:17:31.819Z,34.57
2022-08-22T14:18:31.834Z,34.61
2022-08-22T14:19:31.775Z,34.70
2022-08-22T14:20:33.557Z,34.75
2022-08-22T14:21:39.942Z,34.83
2022-08-22T14:22:34.767Z,34.88
2022-08-22T14:23:31.737Z,34.90
2022-08-22T14:24:31.728Z,34.96
2022-08-22T14:25:31.721Z,35.00
2022-08-22T14:26:33.081Z,35.05
2022-08-22T14:27:31.706Z,35.00
2022-08-22T14:28:31.694Z,34.93
2022-08-22T14:29:32.004Z,34.92
2022-08-22T14:30:31.689Z,34.88
2022-08-22T14:31:31.658Z,34.88
2022-08-22T14:32:35.394Z,34.92
2022-08-22T14:33:31.674Z,34.89
2022-08-22T14:34:31.645Z,34.85
2022-08-22T14:35:35.370Z,34.88
2022-08-22T14:36:31.622Z,34.90
2022-08-22T14:37:31.615Z,34.97
2022-08-22T14:38:31.678Z,34.99
2022-08-22T14:39:31.584Z,34.99
2022-08-22T14:40:31.590Z,34.99
2022-08-22T14:41:52.282Z,35.04
2022-08-22T14:42:31.550Z,35.05
2022-08-22T14:43:31.563Z,35.08
2022-08-22T14:44:31.537Z,35.14
2022-08-22T14:45:33.090Z,35.23
2022-08-22T14:46:31.548Z,35.29
2022-08-22T14:47:54.060Z,35.29
2022-08-22T14:48:33.809Z,35.36
2022-08-22T14:49:31.487Z,35.45
2022-08-22T14:50:31.471Z,35.52
2022-08-22T14:51:31.466Z,35.58
2022-08-22T14:52:31.471Z,35.67
2022-08-22T14:53:31.444Z,35.74
2022-08-22T14:54:31.427Z,35.78
2022-08-22T14:55:31.421Z,35.83
2022-08-22T14:56:31.412Z,35.80
2022-08-22T14:57:31.402Z,35.92
2022-08-22T14:58:31.408Z,35.95
2022-08-22T14:59:31.384Z,36.00
2022-08-22T15:00:31.371Z,36.05
2022-08-22T15:01:32.955Z,36.12
2022-08-22T15:02:31.565Z,36.24
2022-08-22T15:03:31.358Z,36.28
2022-08-22T15:04:31.358Z,36.36
2022-08-22T15:05:31.321Z,36.45
2022-08-22T15:06:31.329Z,36.51
2022-08-22T15:07:31.307Z,36.54
2022-08-22T15:08:31.288Z,36.57
2022-08-22T15:09:31.304Z,36.64
2022-08-22T15:10:32.889Z,36.77
2022-08-22T15:11:32.012Z,36.89
2022-08-22T15:12:31.246Z,36.99
2022-08-22T15:13:31.246Z,37.10
2022-08-22T15:14:31.259Z,37.18
2022-08-22T15:15:31.236Z,37.29
2022-08-22T15:16:31.212Z,37.39
2022-08-22T15:17:31.202Z,37.49
2022-08-22T15:18:31.206Z,37.58
2022-08-22T15:19:31.189Z,37.68
2022-08-22T15:20:34.129Z,37.83
2022-08-22T15:21:31.170Z,37.90
2022-08-22T15:22:31.147Z,37.96
2022-08-22T15:23:31.147Z,38.02
2022-08-22T15:24:31.151Z,37.99
2022-08-22T15:25:31.147Z,37.94
2022-08-22T15:26:31.116Z,38.02
2022-08-22T15:27:31.158Z,38.06
2022-08-22T15:28:35.881Z,38.06
2022-08-22T15:29:31.139Z,38.05
2022-08-22T15:30:31.124Z,38.15
2022-08-22T15:31:31.079Z,38.27
2022-08-22T15:32:31.087Z,38.39
2022-08-22T15:33:31.049Z,38.54
2022-08-22T15:34:31.045Z,38.73
2022-08-22T15:35:31.025Z,38.92
2022-08-22T15:36:31.011Z,39.09
2022-08-22T15:37:32.407Z,39.18
2022-08-22T15:38:31.018Z,39.30
2022-08-22T15:39:31.015Z,39.41
2022-08-22T15:40:31.042Z,39.49
2022-08-22T15:41:31.485Z,39.60
2022-08-22T15:42:31.005Z,39.72
2022-08-22T15:43:33.715Z,39.71
2022-08-22T15:44:32.857Z,39.81
2022-08-22T15:45:30.939Z,39.93
2022-08-22T15:46:30.921Z,40.08
2022-08-22T15:47:34.820Z,40.11
2022-08-22T15:48:30.932Z,40.15
2022-08-22T15:49:30.916Z,40.23
2022-08-22T15:50:30.899Z,40.28
2022-08-22T15:51:30.879Z,40.26
2022-08-22T15:52:36.878Z,40.26
2022-08-22T15:53:30.872Z,40.24
2022-08-22T15:54:30.845Z,40.14
2022-08-22T15:55:30.834Z,40.02
2022-08-22T15:56:30.822Z,39.89
2022-08-22T15:57:30.827Z,39.72
2022-08-22T15:58:30.827Z,39.52
2022-08-22T15:59:30.795Z,39.29
2022-08-22T16:00:30.788Z,39.07
2022-08-22T16:01:31.398Z,38.84
2022-08-22T16:02:34.961Z,38.60
2022-08-22T16:03:30.762Z,38.28
2022-08-22T16:04:30.766Z,37.96
2022-08-22T16:05:30.740Z,37.58
2022-08-22T16:06:30.747Z,37.29
2022-08-22T16:07:30.721Z,37.03
2022-08-22T16:08:32.974Z,36.79
2022-08-22T16:09:30.725Z,36.64
2022-08-22T16:10:30.694Z,36.47
2022-08-22T16:11:33.275Z,36.28
2022-08-22T16:12:30.664Z,36.05
2022-08-22T16:13:30.660Z,35.86
2022-08-22T16:14:30.655Z,35.67
2022-08-22T16:15:30.676Z,35.52
2022-08-22T16:16:30.634Z,35.37
2022-08-22T16:17:30.635Z,35.26
2022-08-22T16:18:30.616Z,35.14
2022-08-22T16:19:30.599Z,35.04
2022-08-22T16:20:30.627Z,34.93
2022-08-22T16:21:30.581Z,34.85
2022-08-22T16:22:30.571Z,34.77
2022-08-22T16:23:30.559Z,34.67
2022-08-22T16:24:30.547Z,34.61
2022-08-22T16:25:30.554Z,34.51
2022-08-22T16:26:30.534Z,34.47
2022-08-22T16:27:30.529Z,34.39
2022-08-22T16:28:56.332Z,34.35
2022-08-22T16:29:30.504Z,34.25
2022-08-22T16:30:30.493Z,34.18
2022-08-22T16:31:30.497Z,34.11
2022-08-22T16:32:30.541Z,34.02
2022-08-22T16:33:30.527Z,33.96
2022-08-22T16:34:30.452Z,33.87
2022-08-22T16:35:30.450Z,33.76
2022-08-22T16:36:30.425Z,33.65
2022-08-22T16:37:30.446Z,33.53
2022-08-22T16:38:33.681Z,33.40
2022-08-22T16:39:30.414Z,33.31
2022-08-22T16:40:30.418Z,33.19
2022-08-22T16:41:30.394Z,33.09
2022-08-22T16:42:30.409Z,33.01
2022-08-22T16:43:30.368Z,32.96
2022-08-22T16:44:30.392Z,32.89
2022-08-22T16:45:30.359Z,32.82
2022-08-22T16:46:34.618Z,32.77
2022-08-22T16:47:30.354Z,32.71
2022-08-22T16:48:30.324Z,32.67
2022-08-22T16:49:30.309Z,32.63
2022-08-22T16:50:30.294Z,32.56
2022-08-22T16:51:30.285Z,32.48
2022-08-22T16:52:30.304Z,32.45
2022-08-22T16:53:30.292Z,32.38
2022-08-22T16:54:30.250Z,32.34
2022-08-22T16:55:30.254Z,32.30
2022-08-22T16:56:30.220Z,32.23
2022-08-22T16:57:30.223Z,32.18
2022-08-22T16:58:49.933Z,32.12
2022-08-22T16:59:38.360Z,32.08
2022-08-22T17:00:30.204Z,32.03
2022-08-22T17:01:30.255Z,32.00
2022-08-22T17:02:30.204Z,31.97
2022-08-22T17:03:30.156Z,31.92
2022-08-22T17:04:30.161Z,31.89
2022-08-22T17:05:30.411Z,31.81
2022-08-22T17:06:30.124Z,31.74
2022-08-22T17:07:30.111Z,31.70
2022-08-22T17:08:30.113Z,31.66
2022-08-22T17:09:30.123Z,31.59
2022-08-22T17:10:30.110Z,31.56
2022-08-22T17:11:30.077Z,31.52
2022-08-22T17:12:30.083Z,31.49
2022-08-22T17:13:30.066Z,31.46
2022-08-22T17:14:30.042Z,31.42
2022-08-22T17:15:30.065Z,31.39
2022-08-22T17:16:30.029Z,31.37
2022-08-22T17:17:30.029Z,31.34
2022-08-22T17:18:30.074Z,31.31
2022-08-22T17:19:36.010Z,31.27
2022-08-22T17:20:29.989Z,31.24
2022-08-22T17:21:29.990Z,31.22
2022-08-22T17:22:29.959Z,31.20
2022-08-22T17:23:29.977Z,31.17
2022-08-22T17:24:32.389Z,31.15
2022-08-22T17:25:29.944Z,31.12
2022-08-22T17:26:29.919Z,31.07
2022-08-22T17:27:30.359Z,31.07
2022-08-22T17:28:33.914Z,31.00